Vieux-Fort の空港の天気 - METARとTAF

ヘウノラ国際空港 ( TLPL / UVF ) - セントルシア Vieux-Fort
飛行場実況気象(Metar)
観測時間01/29 03:00 AST (01/29 07:00 UTC)
風向・風速東北東 7m/s
視程10km以上
天気現象
少しの雲 雲底高度 730m
気温25℃
湿度74%
気圧1012hPa
METARTLPL 290700Z 07014KT 9999 FEW024 25/20 Q1012 NOSIG
過去の天気等 Google飛行場航空写真 Wunderground天気予報

過去48時間のMETAR

飛行場予報(TAF)
発表時間: 1/29 01:00 AST (1/29 05:00 UTC)
予報対象時間: 29日2時 AST ~ 30日2時 AST
風向・風速東北東 7m/s
視程10km以上
全天の4割程度の雲 雲底高度 730m
29日17時 AST ~ 30日2時 AST に 確率 30% で一時的に
天気現象しゅう雨
TAF TLPL 290500Z 2906/3006 07013KT 9999 SCT024
PROB30 TEMPO 2921/3006 SHRA